Time;durP1;ratioP1;P1;durP2;ratioP2;P2;SDS_P1;SDS_P2;PMS_P1;PMS_P2;Temp;Humidity;BMP_temperature;BMP_pressure;BME280_temperature;BME280_humidity;BME280_pressure;Samples;Min_cycle;Max_cycle;Signal;HPM_P1;HPM_P2
2021/04/06 00:00:30;;;;;;;1.38;0.65;;;20.00;26.00;;;;;;8459696;28;20036;-57
2021/04/06 00:04:34;;;;;;;1.80;0.77;;;20.00;26.00;;;;;;8463825;28;20114;-57
2021/04/06 00:08:35;;;;;;;1.45;0.65;;;20.00;26.00;;;;;;8457034;28;20039;-56
2021/04/06 00:12:37;;;;;;;1.55;0.80;;;19.90;26.00;;;;;;8458592;28;20048;-57
2021/04/06 00:16:38;;;;;;;0.98;0.60;;;19.90;26.00;;;;;;8466835;27;20035;-57
2021/04/06 00:20:40;;;;;;;1.23;0.63;;;19.90;26.00;;;;;;8495114;27;20485;-57
2021/04/06 00:24:44;;;;;;;2.88;0.93;;;19.90;26.00;;;;;;8459059;27;20047;-57
2021/04/06 00:28:46;;;;;;;2.10;0.85;;;19.80;25.90;;;;;;8458119;28;20071;-57
2021/04/06 00:32:54;;;;;;;0.90;0.60;;;19.80;26.00;;;;;;8456512;28;20514;-57
2021/04/06 00:36:56;;;;;;;1.15;0.73;;;19.80;26.00;;;;;;8457838;28;20087;-57
2021/04/06 00:41:03;;;;;;;1.20;0.80;;;19.80;26.00;;;;;;8462599;28;20067;-57
2021/04/06 00:45:12;;;;;;;1.05;0.70;;;19.80;26.00;;;;;;8456153;28;20042;-57
2021/04/06 00:49:15;;;;;;;2.15;0.50;;;19.70;26.00;;;;;;8457954;28;20040;-57
2021/04/06 00:53:16;;;;;;;1.48;0.93;;;19.70;25.90;;;;;;8455673;28;20047;-57
2021/04/06 00:57:17;;;;;;;1.58;0.88;;;19.70;26.00;;;;;;8458770;28;20028;-57
2021/04/06 01:01:28;;;;;;;1.47;0.70;;;19.70;26.00;;;;;;8460876;28;20522;-57
2021/04/06 01:05:31;;;;;;;2.05;0.70;;;19.70;25.90;;;;;;8455730;28;20046;-57
2021/04/06 01:10:09;;;;;;;0.93;0.57;;;19.60;25.90;;;;;;8473109;28;20032;-57
2021/04/06 01:14:15;;;;;;;0.98;0.70;;;19.60;25.90;;;;;;8477613;27;20047;-57
2021/04/06 01:18:15;;;;;;;2.00;0.77;;;19.60;25.90;;;;;;8455727;28;20177;-57
2021/04/06 01:22:17;;;;;;;1.17;0.80;;;19.60;25.90;;;;;;8461619;28;20027;-57
2021/04/06 01:26:18;;;;;;;1.35;0.85;;;19.60;25.90;;;;;;8455453;28;20036;-57
2021/04/06 01:30:22;;;;;;;1.00;0.70;;;19.50;25.80;;;;;;8457398;28;20062;-57
2021/04/06 01:34:24;;;;;;;2.13;1.10;;;19.50;25.90;;;;;;8456932;28;20504;-57
2021/04/06 01:38:26;;;;;;;;;;;19.50;25.90;;;;;;8460289;28;20031;-57
2021/04/06 01:42:31;;;;;;;1.70;0.70;;;19.50;25.90;;;;;;8456859;28;20325;-57
2021/04/06 01:46:40;;;;;;;0.85;0.60;;;19.50;25.90;;;;;;8456998;28;20032;-57
2021/04/06 01:50:42;;;;;;;1.00;0.70;;;19.40;25.80;;;;;;8460071;28;20089;-57
2021/04/06 01:54:50;;;;;;;0.90;0.60;;;19.40;25.80;;;;;;8463544;28;20040;-57
2021/04/06 01:58:53;;;;;;;1.98;0.65;;;19.40;25.90;;;;;;8467620;28;20028;-57
2021/04/06 02:02:57;;;;;;;0.82;0.68;;;19.40;25.90;;;;;;8461097;28;20043;-57
2021/04/06 02:07:00;;;;;;;2.45;0.80;;;19.40;25.90;;;;;;8463144;28;20036;-57
2021/04/06 02:11:01;;;;;;;1.17;0.93;;;19.30;25.90;;;;;;8462877;28;20515;-57
2021/04/06 02:15:02;;;;;;;1.08;0.75;;;19.30;25.90;;;;;;8465187;28;20086;-57
2021/04/06 02:19:02;;;;;;;1.13;0.70;;;19.30;25.80;;;;;;8462472;28;20040;-57
2021/04/06 02:23:04;;;;;;;2.93;0.73;;;19.30;25.90;;;;;;8462358;28;20273;-57
2021/04/06 02:27:16;;;;;;;3.28;0.90;;;19.30;25.90;;;;;;8460622;28;20031;-57
2021/04/06 02:31:18;;;;;;;2.10;0.80;;;19.30;25.90;;;;;;8462160;28;20384;-57
2021/04/06 02:35:19;;;;;;;1.50;0.63;;;19.20;25.90;;;;;;8445980;28;20051;-57
2021/04/06 02:39:20;;;;;;;0.97;0.67;;;19.20;25.80;;;;;;8462333;28;20039;-57
2021/04/06 02:43:20;;;;;;;0.95;0.68;;;19.20;25.80;;;;;;8460982;28;20032;-57
2021/04/06 02:47:22;;;;;;;1.20;0.70;;;19.20;25.90;;;;;;8460701;27;20036;-57
2021/04/06 02:51:23;;;;;;;2.15;0.80;;;19.10;25.80;;;;;;8465763;28;20185;-57
2021/04/06 02:55:25;;;;;;;1.70;0.90;;;19.20;25.90;;;;;;8461213;28;20436;-57
2021/04/06 02:59:25;;;;;;;0.77;0.73;;;19.10;25.80;;;;;;8459370;28;20024;-57
2021/04/06 03:03:28;;;;;;;1.33;0.63;;;19.10;25.90;;;;;;8461288;28;20061;-57
2021/04/06 03:07:28;;;;;;;1.42;0.80;;;19.10;25.90;;;;;;8460930;28;20481;-57
2021/04/06 03:11:29;;;;;;;1.40;0.80;;;19.10;25.90;;;;;;8463555;28;20050;-57
2021/04/06 03:15:31;;;;;;;2.20;0.70;;;19.10;25.90;;;;;;8461184;27;20565;-57
2021/04/06 03:19:32;;;;;;;2.42;1.02;;;19.10;25.90;;;;;;8460688;28;20032;-57
2021/04/06 03:23:34;;;;;;;1.38;0.82;;;19.10;25.80;;;;;;8458537;28;20047;-56
2021/04/06 03:27:34;;;;;;;1.42;0.70;;;19.10;26.30;;;;;;8464510;28;20119;-57
2021/04/06 03:31:35;;;;;;;1.70;0.70;;;19.10;25.90;;;;;;8460126;28;20032;-57
2021/04/06 03:35:38;;;;;;;1.20;0.97;;;19.20;25.90;;;;;;8458814;27;20044;-57
2021/04/06 03:39:39;;;;;;;1.88;1.48;;;19.20;25.90;;;;;;8469742;27;20373;-55
2021/04/06 03:43:41;;;;;;;;;;;19.10;25.80;;;;;;8495708;27;20028;-55
2021/04/06 03:47:55;;;;;;;1.52;0.60;;;19.20;25.90;;;;;;8460782;28;19911;-57
2021/04/06 03:52:07;;;;;;;2.03;0.95;;;19.10;25.80;;;;;;8459118;28;20165;-57
2021/04/06 03:56:13;;;;;;;1.02;0.80;;;19.10;25.80;;;;;;8459244;28;20130;-57
2021/04/06 04:00:14;;;;;;;1.77;0.90;;;19.20;25.80;;;;;;8457431;28;20035;-57
2021/04/06 04:04:14;;;;;;;1.08;0.65;;;19.10;25.70;;;;;;8463276;28;20063;-57
2021/04/06 04:08:15;;;;;;;1.63;0.80;;;19.10;25.70;;;;;;8457281;28;20423;-57
2021/04/06 04:12:15;;;;;;;1.07;0.97;;;19.20;25.80;;;;;;8458876;27;20039;-57
2021/04/06 04:16:16;;;;;;;1.80;1.00;;;19.20;25.90;;;;;;8458959;28;20032;-58
2021/04/06 04:20:21;;;;;;;1.13;0.77;;;19.10;25.90;;;;;;8456908;28;20053;-56
2021/04/06 04:24:22;;;;;;;0.90;0.80;;;19.30;26.00;;;;;;8462980;28;20110;-57
2021/04/06 04:28:23;;;;;;;1.03;0.93;;;19.30;26.00;;;;;;8458208;28;20039;-56
2021/04/06 04:32:23;;;;;;;0.87;0.80;;;19.30;25.90;;;;;;8456759;28;20126;-57
2021/04/06 04:36:24;;;;;;;1.67;0.80;;;19.40;25.90;;;;;;8458452;27;20032;-56
2021/04/06 04:40:24;;;;;;;1.37;0.90;;;19.40;25.90;;;;;;8462367;28;20100;-57
2021/04/06 04:44:25;;;;;;;1.17;0.80;;;19.40;25.90;;;;;;8456262;28;20036;-56
2021/04/06 04:48:25;;;;;;;2.57;1.00;;;19.50;25.90;;;;;;8457656;28;20047;-56
2021/04/06 04:52:26;;;;;;;2.13;1.20;;;19.50;25.80;;;;;;8457681;28;20506;-56
2021/04/06 04:56:27;;;;;;;2.73;0.70;;;19.50;25.80;;;;;;8458992;28;20078;-56
2021/04/06 05:00:28;;;;;;;2.33;1.03;;;19.50;25.70;;;;;;8459783;28;20063;-56
2021/04/06 05:04:29;;;;;;;3.38;1.10;;;19.60;25.80;;;;;;8457226;28;20036;-57
2021/04/06 05:08:30;;;;;;;1.05;0.95;;;19.60;25.80;;;;;;8455797;28;20040;-57
2021/04/06 05:12:30;;;;;;;2.60;1.10;;;19.60;25.80;;;;;;8457192;28;20039;-57
2021/04/06 05:16:31;;;;;;;1.20;0.70;;;19.60;25.70;;;;;;8461495;28;20027;-57
2021/04/06 05:20:31;;;;;;;2.97;0.90;;;19.70;25.80;;;;;;8455194;28;20111;-58
2021/04/06 05:24:32;;;;;;;1.63;1.07;;;19.70;25.70;;;;;;8460000;28;20031;-57
2021/04/06 05:28:32;;;;;;;2.30;1.07;;;19.70;25.60;;;;;;8464211;28;20123;-57
2021/04/06 05:32:33;;;;;;;1.60;0.80;;;19.70;25.70;;;;;;8466470;28;20044;-58
2021/04/06 05:36:33;;;;;;;4.03;1.33;;;19.70;25.60;;;;;;8463334;28;20027;-57
2021/04/06 05:40:34;;;;;;;1.63;0.70;;;19.70;25.60;;;;;;8484203;27;20043;-58
2021/04/06 05:44:38;;;;;;;2.40;0.80;;;19.70;25.60;;;;;;8483880;27;20091;-57
2021/04/06 05:48:39;;;;;;;2.70;1.02;;;19.80;25.60;;;;;;8463442;27;20476;-57
2021/04/06 05:52:40;;;;;;;1.27;1.05;;;19.80;25.60;;;;;;8467404;28;20047;-58
2021/04/06 05:56:41;;;;;;;;;;;19.80;25.60;;;;;;8460967;28;20036;-57
2021/04/06 06:00:42;;;;;;;2.23;1.30;;;19.80;25.60;;;;;;8462859;28;19956;-57
2021/04/06 06:04:43;;;;;;;1.87;1.53;;;19.80;25.60;;;;;;8462872;28;20054;-58
2021/04/06 06:08:46;;;;;;;4.83;2.33;;;19.80;25.60;;;;;;8465337;28;20035;-57
2021/04/06 06:12:47;;;;;;;3.83;2.30;;;19.80;25.50;;;;;;8462012;28;20035;-57
2021/04/06 06:16:47;;;;;;;3.30;2.07;;;19.90;25.40;;;;;;8462265;28;20396;-59
2021/04/06 06:20:52;;;;;;;3.13;2.40;;;20.00;25.30;;;;;;8460382;28;20070;-58
2021/04/06 06:25:26;;;;;;;6.75;2.90;;;20.20;25.20;;;;;;8464573;28;20050;-58
2021/04/06 06:29:29;;;;;;;4.47;2.67;;;20.40;25.10;;;;;;8408142;28;20067;-58
2021/04/06 06:33:33;;;;;;;2.72;2.40;;;20.40;24.90;;;;;;8457407;28;20542;-58
2021/04/06 06:37:33;;;;;;;3.63;2.60;;;20.50;24.80;;;;;;8461239;28;20036;-58
2021/04/06 06:41:34;;;;;;;3.50;2.10;;;20.60;24.60;;;;;;8460031;28;20128;-56
2021/04/06 06:45:34;;;;;;;4.70;2.70;;;20.70;24.50;;;;;;8465729;28;20051;-56
2021/04/06 06:49:37;;;;;;;3.77;2.17;;;20.70;24.40;;;;;;8461698;28;20042;-56
2021/04/06 06:53:42;;;;;;;5.55;2.58;;;20.80;24.40;;;;;;8459223;28;20049;-57
2021/04/06 06:57:43;;;;;;;3.35;2.20;;;20.80;24.30;;;;;;8461516;28;20482;-57
2021/04/06 07:01:44;;;;;;;2.35;1.95;;;20.80;24.30;;;;;;8464092;27;20031;-57
2021/04/06 07:05:44;;;;;;;3.70;2.40;;;20.70;24.40;;;;;;8497541;27;20028;-57
2021/04/06 07:09:47;;;;;;;2.47;1.83;;;20.80;24.40;;;;;;8466764;27;20028;-57
2021/04/06 07:13:53;;;;;;;3.70;2.20;;;20.80;24.30;;;;;;8460899;28;20085;-57
2021/04/06 07:18:00;;;;;;;4.32;2.80;;;20.80;24.30;;;;;;8458457;28;20035;-58
2021/04/06 07:22:03;;;;;;;3.25;2.20;;;20.70;24.40;;;;;;8464992;28;20384;-58
2021/04/06 07:26:04;;;;;;;4.50;2.50;;;20.50;24.40;;;;;;8460126;28;20480;-58
2021/04/06 07:30:05;;;;;;;;;;;20.50;24.60;;;;;;8459019;28;20107;-57
2021/04/06 07:34:09;;;;;;;4.30;2.80;;;20.50;24.50;;;;;;8460122;28;19920;-57
2021/04/06 07:38:10;;;;;;;4.10;2.75;;;20.40;24.40;;;;;;8459751;28;20438;-57
2021/04/06 07:42:11;;;;;;;4.57;2.83;;;20.40;24.50;;;;;;8462567;28;20044;-56
2021/04/06 07:46:34;;;;;;;5.75;3.08;;;20.30;24.50;;;;;;8458425;28;20548;-57
2021/04/06 07:50:44;;;;;;;5.40;2.78;;;20.20;24.50;;;;;;8457283;28;20449;-56
2021/04/06 07:54:47;;;;;;;3.72;2.58;;;20.20;24.60;;;;;;8459315;28;20048;-56
2021/04/06 07:58:49;;;;;;;4.60;2.60;;;20.10;24.60;;;;;;8459616;27;22556;-56
2021/04/06 08:02:50;;;;;;;4.75;2.70;;;20.10;24.70;;;;;;8461630;28;20516;-57
2021/04/06 08:06:52;;;;;;;3.47;2.50;;;20.00;24.70;;;;;;8458767;28;20028;-57
2021/04/06 08:10:52;;;;;;;5.05;2.67;;;20.00;24.80;;;;;;8458878;28;20035;-57
2021/04/06 08:15:02;;;;;;;3.40;2.40;;;20.00;25.30;;;;;;8457069;28;20558;-57
2021/04/06 08:19:06;;;;;;;3.60;2.50;;;20.00;24.90;;;;;;8463071;28;20032;-57
2021/04/06 08:23:11;;;;;;;5.43;2.75;;;19.90;24.90;;;;;;8458223;28;20050;-58
2021/04/06 08:27:33;;;;;;;5.70;2.15;;;19.90;25.00;;;;;;8456863;28;20023;-57
2021/04/06 08:31:34;;;;;;;5.60;2.10;;;19.90;25.00;;;;;;8458116;28;20393;-58
2021/04/06 08:35:47;;;;;;;3.07;2.17;;;19.90;25.00;;;;;;8456020;28;20047;-57
2021/04/06 08:39:48;;;;;;;5.78;2.45;;;19.80;25.00;;;;;;8462442;28;20032;-58
2021/04/06 08:43:50;;;;;;;4.50;2.42;;;19.80;25.00;;;;;;8457698;28;20036;-57
2021/04/06 08:47:51;;;;;;;5.90;2.40;;;19.80;25.10;;;;;;8455929;28;20088;-57
2021/04/06 08:52:01;;;;;;;3.28;1.85;;;19.80;25.10;;;;;;8458348;27;20445;-57
2021/04/06 08:56:12;;;;;;;4.43;1.83;;;19.80;25.10;;;;;;8459162;27;20177;-56
2021/04/06 09:00:14;;;;;;;2.72;1.70;;;19.80;25.10;;;;;;8493884;27;20391;-57
2021/04/06 09:04:22;;;;;;;3.42;2.10;;;19.80;25.10;;;;;;8490380;27;20402;-57
2021/04/06 09:08:25;;;;;;;3.55;2.40;;;19.80;25.50;;;;;;8469998;27;20046;-57
2021/04/06 09:12:27;;;;;;;6.18;2.25;;;19.70;25.10;;;;;;8457187;28;20036;-57
2021/04/06 09:16:29;;;;;;;2.38;1.50;;;19.70;25.20;;;;;;8461639;28;20043;-57
2021/04/06 09:20:31;;;;;;;5.20;2.20;;;19.70;25.20;;;;;;8456895;28;20080;-57
2021/04/06 09:24:32;;;;;;;3.47;1.80;;;19.60;25.10;;;;;;8457295;28;20084;-57
2021/04/06 09:28:32;;;;;;;3.78;2.05;;;19.60;25.10;;;;;;8457098;28;20081;-57
2021/04/06 09:32:33;;;;;;;4.03;1.20;;;19.60;25.20;;;;;;8455386;28;20065;-57
2021/04/06 09:36:34;;;;;;;2.63;1.70;;;19.60;25.20;;;;;;8461675;28;20063;-57
2021/04/06 09:40:36;;;;;;;;;;;19.60;25.30;;;;;;8457326;28;20028;-56
2021/04/06 09:44:40;;;;;;;2.30;1.55;;;19.50;25.20;;;;;;8455351;28;19919;-57
2021/04/06 09:48:41;;;;;;;3.40;1.98;;;19.50;25.20;;;;;;8456918;28;20058;-57
2021/04/06 09:52:43;;;;;;;4.03;1.88;;;19.50;25.20;;;;;;8461174;28;20427;-57
2021/04/06 09:56:43;;;;;;;;;;;19.50;25.20;;;;;;8455379;28;20032;-57
2021/04/06 10:00:45;;;;;;;3.25;1.60;;;19.50;25.20;;;;;;8456855;28;19964;-57
2021/04/06 10:04:48;;;;;;;2.35;1.60;;;19.50;25.30;;;;;;8456275;28;20036;-57
2021/04/06 10:08:48;;;;;;;2.20;1.52;;;19.50;25.30;;;;;;8454990;28;20042;-57
2021/04/06 10:12:51;;;;;;;3.03;1.50;;;19.50;25.30;;;;;;8467263;28;20035;-57
2021/04/06 10:17:04;;;;;;;3.35;1.67;;;19.50;25.20;;;;;;8462936;28;20028;-57
2021/04/06 10:21:19;;;;;;;3.80;1.40;;;19.50;25.30;;;;;;8460548;28;20043;-57
2021/04/06 10:25:23;;;;;;;3.97;1.60;;;19.50;25.30;;;;;;8462354;28;20036;-57
2021/04/06 10:29:31;;;;;;;2.72;1.38;;;19.50;25.20;;;;;;8461231;28;20429;-57
2021/04/06 10:33:33;;;;;;;2.28;1.27;;;19.50;25.20;;;;;;8466574;28;20089;-57
2021/04/06 10:37:41;;;;;;;2.88;1.23;;;19.50;25.20;;;;;;8461581;28;20107;-57
2021/04/06 10:41:42;;;;;;;2.42;1.35;;;19.50;25.20;;;;;;8460166;28;20036;-56
2021/04/06 10:45:46;;;;;;;3.53;1.70;;;19.50;25.20;;;;;;8461555;28;20508;-57
2021/04/06 10:49:55;;;;;;;2.63;1.38;;;19.50;25.10;;;;;;8466091;28;20058;-57
2021/04/06 10:53:58;;;;;;;1.30;1.20;;;19.50;25.10;;;;;;8459816;28;20054;-56
2021/04/06 10:57:58;;;;;;;2.85;1.40;;;19.50;25.20;;;;;;8461715;28;20027;-57
2021/04/06 11:02:00;;;;;;;2.37;1.47;;;19.50;25.10;;;;;;8461355;28;20028;-58
2021/04/06 11:06:09;;;;;;;1.95;1.40;;;19.50;25.10;;;;;;8459618;28;20027;-57
2021/04/06 11:10:10;;;;;;;2.25;1.40;;;19.50;25.20;;;;;;8465946;28;20035;-57
2021/04/06 11:14:13;;;;;;;1.75;1.02;;;19.50;25.10;;;;;;8442939;28;20057;-57
2021/04/06 11:18:14;;;;;;;2.70;1.20;;;19.50;25.10;;;;;;8459314;28;20073;-57
2021/04/06 11:22:17;;;;;;;2.33;1.13;;;19.50;25.10;;;;;;8459478;28;20035;-57
2021/04/06 11:26:17;;;;;;;3.28;1.40;;;19.50;25.10;;;;;;8462920;28;20495;-56
2021/04/06 11:30:19;;;;;;;3.63;1.00;;;19.50;25.10;;;;;;8460077;28;20093;-57
2021/04/06 11:34:20;;;;;;;1.88;1.08;;;19.50;25.10;;;;;;8460059;28;20035;-57
2021/04/06 11:38:20;;;;;;;2.08;1.30;;;19.50;25.10;;;;;;8459470;27;20032;-57
2021/04/06 11:42:22;;;;;;;3.30;1.43;;;19.50;25.10;;;;;;8459534;28;20038;-57
2021/04/06 11:46:23;;;;;;;2.53;1.35;;;19.50;25.10;;;;;;8464051;28;20038;-57
2021/04/06 11:50:24;;;;;;;2.50;1.20;;;19.50;25.10;;;;;;8457569;28;20036;-57
2021/04/06 11:54:25;;;;;;;3.33;1.25;;;19.50;25.10;;;;;;8460199;27;20067;-57
2021/04/06 11:58:25;;;;;;;2.43;1.10;;;19.50;25.10;;;;;;8459343;28;20119;-57
2021/04/06 12:02:26;;;;;;;2.87;1.10;;;19.50;25.10;;;;;;8461674;28;20510;-57
2021/04/06 12:06:27;;;;;;;1.35;1.20;;;19.50;25.10;;;;;;8458849;28;20051;-57
2021/04/06 12:10:29;;;;;;;1.83;1.03;;;19.40;25.10;;;;;;8459044;28;20067;-57
2021/04/06 12:14:30;;;;;;;2.20;1.20;;;19.40;25.10;;;;;;8456650;28;20051;-57
2021/04/06 12:18:31;;;;;;;1.13;0.90;;;19.40;25.10;;;;;;8462925;28;20063;-57
2021/04/06 12:22:32;;;;;;;2.30;1.40;;;19.40;25.20;;;;;;8459527;28;20036;-57
2021/04/06 12:26:32;;;;;;;1.40;1.07;;;19.40;25.20;;;;;;8456593;28;20784;-57
2021/04/06 12:30:33;;;;;;;1.87;0.93;;;19.40;25.20;;;;;;8458083;28;20078;-57
2021/04/06 12:34:34;;;;;;;3.20;1.13;;;19.40;25.20;;;;;;8460640;27;23088;-57
2021/04/06 12:38:36;;;;;;;3.43;1.47;;;19.40;25.20;;;;;;8494730;27;20379;-57
2021/04/06 12:42:37;;;;;;;4.10;1.10;;;19.40;25.20;;;;;;8463917;27;20032;-57
2021/04/06 12:46:38;;;;;;;3.22;1.10;;;19.40;25.20;;;;;;8458957;27;20496;-56
2021/04/06 12:50:38;;;;;;;2.77;1.30;;;19.30;25.20;;;;;;8456030;28;20039;-57
2021/04/06 12:54:39;;;;;;;1.33;0.93;;;19.30;25.20;;;;;;8462048;28;20443;-57
2021/04/06 12:58:39;;;;;;;1.83;1.47;;;19.30;25.20;;;;;;8457251;28;20027;-57
2021/04/06 13:02:40;;;;;;;2.20;1.07;;;19.30;25.20;;;;;;8455756;28;20046;-55
2021/04/06 13:06:40;;;;;;;3.00;1.13;;;19.30;25.20;;;;;;8457432;28;20051;-57
2021/04/06 13:10:43;;;;;;;1.73;1.00;;;19.30;25.20;;;;;;8457590;28;20024;-57
2021/04/06 13:14:43;;;;;;;1.88;0.90;;;19.30;25.20;;;;;;8460562;28;20067;-57
2021/04/06 13:18:44;;;;;;;1.60;0.90;;;19.30;25.20;;;;;;8457369;28;20032;-57
2021/04/06 13:22:44;;;;;;;1.67;1.07;;;19.30;25.30;;;;;;8457199;28;20031;-57
2021/04/06 13:26:46;;;;;;;3.77;1.00;;;19.30;25.30;;;;;;8455352;28;20032;-57
2021/04/06 13:30:47;;;;;;;1.98;0.90;;;19.30;25.30;;;;;;8461563;28;20028;-57
2021/04/06 13:34:48;;;;;;;0.97;0.87;;;19.20;25.40;;;;;;8456839;28;20554;-56
2021/04/06 13:38:48;;;;;;;2.10;1.30;;;19.20;25.40;;;;;;8455229;28;20035;-57
2021/04/06 13:42:50;;;;;;;3.43;0.90;;;19.20;25.40;;;;;;8457126;28;20112;-56
2021/04/06 13:46:50;;;;;;;2.35;1.30;;;19.20;25.40;;;;;;8466261;28;20058;-57
2021/04/06 13:50:51;;;;;;;1.10;0.90;;;19.20;25.50;;;;;;8461410;28;20043;-57
2021/04/06 13:54:52;;;;;;;0.97;0.90;;;19.20;25.40;;;;;;8463008;28;20043;-57
2021/04/06 13:58:52;;;;;;;1.77;1.17;;;19.20;25.40;;;;;;8463056;28;20054;-57
2021/04/06 14:02:53;;;;;;;0.80;0.73;;;19.20;25.40;;;;;;8461282;28;20108;-57
2021/04/06 14:06:53;;;;;;;1.53;1.27;;;19.20;25.50;;;;;;8467372;28;20479;-57
2021/04/06 14:10:54;;;;;;;1.57;0.90;;;19.20;25.40;;;;;;8462717;28;20058;-57
2021/04/06 14:14:54;;;;;;;2.50;1.10;;;19.20;25.40;;;;;;8460514;28;20050;-56
2021/04/06 14:18:56;;;;;;;0.87;0.70;;;19.20;25.40;;;;;;8462393;28;20053;-57
2021/04/06 14:22:57;;;;;;;;;;;19.20;25.40;;;;;;8467314;28;20043;-57
2021/04/06 14:26:58;;;;;;;1.33;0.70;;;19.10;25.40;;;;;;8461239;28;19919;-56
2021/04/06 14:30:58;;;;;;;1.90;0.93;;;19.10;25.40;;;;;;8481517;27;20078;-57
2021/04/06 14:34:59;;;;;;;1.33;1.00;;;19.10;25.60;;;;;;8485210;27;20040;-57
2021/04/06 14:38:59;;;;;;;3.53;1.33;;;19.10;25.50;;;;;;8462191;28;20031;-56
2021/04/06 14:43:21;;;;;;;1.20;0.93;;;19.10;25.50;;;;;;8465128;28;20122;-54
2021/04/06 14:47:22;;;;;;;1.50;0.98;;;19.10;25.50;;;;;;8459394;28;20036;-56
2021/04/06 14:51:26;;;;;;;3.33;0.70;;;19.10;25.50;;;;;;8477411;27;20035;-56
2021/04/06 14:55:27;;;;;;;1.33;0.90;;;19.00;25.40;;;;;;8494511;27;20490;-57
2021/04/06 14:59:28;;;;;;;1.70;1.17;;;19.00;25.50;;;;;;8498065;27;20035;-56
2021/04/06 15:03:31;;;;;;;1.77;0.57;;;19.00;25.50;;;;;;8463413;27;20040;-55
2021/04/06 15:07:35;;;;;;;1.52;0.90;;;19.00;25.50;;;;;;8460770;28;20036;-56
2021/04/06 15:11:35;;;;;;;2.22;0.90;;;19.00;25.60;;;;;;8460120;27;20038;-56
2021/04/06 15:15:36;;;;;;;1.30;1.10;;;19.10;25.60;;;;;;8460912;27;20044;-57
2021/04/06 15:19:36;;;;;;;1.40;0.80;;;19.10;25.50;;;;;;8464990;28;20063;-57
2021/04/06 15:23:37;;;;;;;2.50;1.00;;;19.20;25.50;;;;;;8458701;28;20027;-56
2021/04/06 15:27:47;;;;;;;1.95;0.75;;;19.20;25.50;;;;;;8460466;28;20039;-56
2021/04/06 15:31:47;;;;;;;1.85;0.82;;;19.30;25.60;;;;;;8460560;27;20043;-56
2021/04/06 15:35:48;;;;;;;2.53;0.80;;;19.30;25.60;;;;;;8462706;28;20388;-56
2021/04/06 15:39:49;;;;;;;0.97;0.80;;;19.40;25.60;;;;;;8460274;28;20035;-56
2021/04/06 15:43:49;;;;;;;2.17;1.10;;;19.40;25.60;;;;;;8460093;28;20036;-56
2021/04/06 15:47:50;;;;;;;1.57;1.00;;;19.50;25.60;;;;;;8458026;28;20038;-56
2021/04/06 15:52:00;;;;;;;1.43;1.00;;;19.50;25.60;;;;;;8460689;28;20038;-56
2021/04/06 15:56:01;;;;;;;2.30;0.90;;;19.50;25.60;;;;;;8429876;28;20081;-56
2021/04/06 16:00:07;;;;;;;1.02;0.82;;;19.50;25.70;;;;;;8449610;28;20510;-56
2021/04/06 16:04:08;;;;;;;1.05;0.70;;;19.60;25.70;;;;;;8459019;28;20036;-57
2021/04/06 16:08:10;;;;;;;2.93;0.70;;;19.60;25.70;;;;;;8464219;27;20030;-57
2021/04/06 16:12:11;;;;;;;1.50;1.20;;;19.60;25.70;;;;;;8494997;27;20035;-56
2021/04/06 16:16:12;;;;;;;1.83;0.98;;;19.60;25.80;;;;;;8428008;28;20065;-56
2021/04/06 16:20:14;;;;;;;1.43;0.77;;;19.70;25.80;;;;;;8424743;28;20041;-56
2021/04/06 16:24:15;;;;;;;1.60;0.90;;;19.60;25.70;;;;;;8423308;28;20032;-55
2021/04/06 16:28:16;;;;;;;;;;;19.70;25.80;;;;;;8426287;28;20396;-56
2021/04/06 16:32:18;;;;;;;1.67;0.90;;;19.70;25.70;;;;;;8426626;28;20006;-56
2021/04/06 16:36:20;;;;;;;1.50;0.90;;;19.70;25.80;;;;;;8424637;28;20063;-56
2021/04/06 16:40:20;;;;;;;;;;;19.70;25.70;;;;;;8424872;27;20399;-56
2021/04/06 16:44:24;;;;;;;2.00;0.90;;;19.70;25.70;;;;;;8422749;28;19963;-56
2021/04/06 16:48:25;;;;;;;1.70;0.77;;;19.70;25.80;;;;;;8428963;28;20535;-57
2021/04/06 16:52:26;;;;;;;;;;;19.80;25.70;;;;;;8424697;28;20094;-57
2021/04/06 16:56:26;;;;;;;1.20;0.80;;;19.80;25.70;;;;;;8422365;28;20284;-57
2021/04/06 17:00:28;;;;;;;1.67;0.93;;;19.80;25.70;;;;;;8424080;28;20062;-56
2021/04/06 17:04:28;;;;;;;1.40;0.73;;;19.80;25.70;;;;;;8428094;28;20122;-56
2021/04/06 17:08:29;;;;;;;1.73;0.70;;;19.80;25.70;;;;;;8422187;28;20028;-56
2021/04/06 17:12:29;;;;;;;1.13;0.75;;;19.80;25.70;;;;;;8449394;28;20055;-57
2021/04/06 17:16:31;;;;;;;2.00;0.73;;;19.80;25.70;;;;;;8478818;27;20050;-57
2021/04/06 17:20:32;;;;;;;1.85;1.08;;;19.80;25.70;;;;;;8460140;28;20031;-57
2021/04/06 17:24:33;;;;;;;1.38;1.15;;;19.90;25.70;;;;;;8468989;28;20042;-57
2021/04/06 17:28:36;;;;;;;3.60;1.02;;;19.90;25.70;;;;;;8464413;28;20043;-57
2021/04/06 17:32:37;;;;;;;1.67;1.20;;;19.90;25.70;;;;;;8462962;27;20040;-57
2021/04/06 17:36:38;;;;;;;3.85;1.48;;;19.90;25.70;;;;;;8446311;27;20036;-56
2021/04/06 17:40:39;;;;;;;2.07;1.10;;;19.90;25.70;;;;;;8468234;28;20056;-57
2021/04/06 17:44:40;;;;;;;2.00;1.20;;;19.90;25.70;;;;;;8462871;28;20063;-57
2021/04/06 17:48:41;;;;;;;1.20;1.10;;;19.90;25.70;;;;;;8463723;28;20040;-55
2021/04/06 17:52:42;;;;;;;2.30;1.00;;;19.90;25.70;;;;;;8463611;28;20383;-56
2021/04/06 17:56:43;;;;;;;1.42;1.33;;;19.90;25.70;;;;;;8462150;27;20027;-57
2021/04/06 18:00:46;;;;;;;2.80;1.00;;;20.00;25.70;;;;;;8467572;28;20028;-56
2021/04/06 18:04:47;;;;;;;2.00;1.80;;;20.00;25.70;;;;;;8462818;28;20088;-56
2021/04/06 18:08:47;;;;;;;1.40;0.80;;;20.00;25.70;;;;;;8461292;28;20483;-56
2021/04/06 18:12:48;;;;;;;1.33;1.10;;;20.00;25.70;;;;;;8462848;28;20038;-57
2021/04/06 18:16:49;;;;;;;1.67;1.10;;;20.00;25.70;;;;;;8467223;28;20391;-56
2021/04/06 18:20:52;;;;;;;1.45;1.05;;;20.00;25.70;;;;;;8460632;28;20028;-56
2021/04/06 18:24:53;;;;;;;1.52;0.90;;;20.00;25.70;;;;;;8462625;28;20063;-57
2021/04/06 18:28:53;;;;;;;1.53;1.00;;;20.00;25.70;;;;;;8462036;28;20032;-57
2021/04/06 18:32:54;;;;;;;2.30;0.90;;;20.00;25.70;;;;;;8464274;28;20421;-57
2021/04/06 18:36:55;;;;;;;1.87;1.23;;;20.00;25.70;;;;;;8462745;27;20031;-56
2021/04/06 18:40:57;;;;;;;2.05;0.93;;;20.10;25.80;;;;;;8461833;28;20039;-56
2021/04/06 18:44:58;;;;;;;1.13;0.98;;;20.10;25.80;;;;;;8472423;27;20110;-56
2021/04/06 18:48:58;;;;;;;1.77;1.00;;;20.10;25.80;;;;;;8492349;27;20039;-57
2021/04/06 18:52:59;;;;;;;2.23;1.03;;;20.10;25.80;;;;;;8466079;28;20387;-57
2021/04/06 18:57:00;;;;;;;1.67;1.03;;;20.10;25.80;;;;;;8459627;28;20032;-56
2021/04/06 19:01:01;;;;;;;1.10;0.90;;;20.10;25.80;;;;;;8461438;28;20437;-57
2021/04/06 19:05:07;;;;;;;2.15;1.10;;;20.00;25.70;;;;;;8466991;27;20042;-57
2021/04/06 19:09:08;;;;;;;1.13;0.93;;;20.10;25.80;;;;;;8497651;27;20027;-57
2021/04/06 19:13:11;;;;;;;0.80;0.80;;;20.00;25.70;;;;;;8463420;27;20036;-57
2021/04/06 19:17:12;;;;;;;1.63;0.90;;;20.10;25.80;;;;;;8460760;28;20093;-57
2021/04/06 19:21:18;;;;;;;1.00;0.90;;;20.10;25.80;;;;;;8440408;28;20023;-57
2021/04/06 19:25:20;;;;;;;1.85;1.10;;;20.10;25.80;;;;;;8442119;28;20032;-57
2021/04/06 19:29:20;;;;;;;;;;;20.10;25.70;;;;;;8463606;28;20062;-56
2021/04/06 19:33:22;;;;;;;1.63;0.90;;;20.10;25.70;;;;;;8459973;27;20459;-57
2021/04/06 19:37:22;;;;;;;;;;;20.10;25.70;;;;;;8460726;28;20070;-57
2021/04/06 19:41:23;;;;;;;2.07;0.90;;;20.10;25.80;;;;;;8457670;28;19919;-57
2021/04/06 19:45:25;;;;;;;2.63;1.17;;;20.10;25.70;;;;;;8463710;28;20030;-57
2021/04/06 19:49:26;;;;;;;1.05;0.80;;;20.10;25.70;;;;;;8459479;28;20140;-57
2021/04/06 19:53:26;;;;;;;1.02;0.80;;;20.10;25.70;;;;;;8458532;28;20134;-57
2021/04/06 19:57:27;;;;;;;1.10;0.90;;;20.10;25.70;;;;;;8459233;28;20032;-56
2021/04/06 20:01:28;;;;;;;0.90;0.83;;;20.10;25.80;;;;;;8461062;28;20035;-57
2021/04/06 20:05:31;;;;;;;2.50;1.00;;;20.10;25.80;;;;;;8460589;28;20032;-56
2021/04/06 20:09:31;;;;;;;0.77;0.77;;;20.10;25.70;;;;;;8459134;28;20036;-57
2021/04/06 20:13:33;;;;;;;1.30;1.00;;;20.10;25.70;;;;;;8459061;28;20048;-56
2021/04/06 20:17:34;;;;;;;0.82;0.70;;;20.10;25.80;;;;;;8457289;28;20379;-56
2021/04/06 20:21:36;;;;;;;1.02;0.93;;;20.10;25.70;;;;;;8463232;28;20102;-56
2021/04/06 20:25:38;;;;;;;1.02;0.82;;;20.10;25.70;;;;;;8458779;28;20395;-57
2021/04/06 20:29:38;;;;;;;1.10;0.88;;;20.10;25.80;;;;;;8475104;27;20080;-56
2021/04/06 20:33:48;;;;;;;1.90;1.20;;;20.00;25.70;;;;;;8483412;27;20043;-56
2021/04/06 20:37:48;;;;;;;0.80;0.75;;;20.00;25.70;;;;;;8462716;28;20031;-56
2021/04/06 20:41:50;;;;;;;0.90;0.70;;;20.00;25.80;;;;;;8457654;28;20509;-57
2021/04/06 20:45:50;;;;;;;0.93;0.63;;;19.90;25.70;;;;;;8458544;28;20039;-56
2021/04/06 20:49:51;;;;;;;1.10;0.97;;;19.90;25.70;;;;;;8457898;28;20557;-57
2021/04/06 20:53:51;;;;;;;0.83;0.80;;;19.80;25.70;;;;;;8458427;28;20171;-57
2021/04/06 20:57:52;;;;;;;0.87;0.70;;;19.80;25.70;;;;;;8496199;27;20055;-56
2021/04/06 21:01:53;;;;;;;1.13;0.90;;;19.80;25.70;;;;;;8464213;27;20035;-57
2021/04/06 21:05:54;;;;;;;1.98;0.93;;;19.80;25.70;;;;;;8455720;28;20028;-57